METAR UND TAF INFORMATION
SAEZ 161100Z 00000KT CAVOK 09/06 Q1026 NOSIG

 FLUGHAFENKARTE

 RUNWAY INFORMATION
Runway 11 Runway length 10827 ft Runway width 197 ft
Runway elevation 62 ft Runway displaced threshold 0 ft Runway heading 102
Runway 29 Runway length 10827 ft Runway width 197 ft
Runway elevation 66 ft Runway displaced threshold 0 ft Runway heading 282
Runway 17 Runway length 10187 ft Runway width 148 ft
Runway elevation 62 ft Runway displaced threshold 0 ft Runway heading 164
Runway 35 Runway length 10187 ft Runway width 148 ft
Runway elevation 67 ft Runway displaced threshold 984 ft Runway heading 344

 AIRPORT FREQUENCIES
Type A/D Name BAIRES CON Frequency 124.9 MHZ
Type APP Name EZEIZA APP Frequency 119.9 MHZ
Type ATIS Name ATIS Frequency 127.8 MHZ
Type GCCD Name GND/CLNC D Frequency 121.75 MHZ
Type TWR Name EZEIZA TWR Frequency 118.6 MHZ

 AIRPORT NEAR NAVIGATION AIDS
Type VOR-DME Name Ezeiza Frequency 116500 KHZ